sensor_id;sensor_type;location;lat;lon;timestamp;P1;durP1;ratioP1;P2;durP2;ratioP2
11651;SDS011;5882;48.818;9.114;2023-05-29T00:02:22;3.65;;;3.50;;
11651;SDS011;5882;48.818;9.114;2023-05-29T00:05:09;3.78;;;3.58;;
11651;SDS011;5882;48.818;9.114;2023-05-29T00:07:55;3.60;;;3.40;;
11651;SDS011;5882;48.818;9.114;2023-05-29T00:10:40;3.20;;;2.90;;
11651;SDS011;5882;48.818;9.114;2023-05-29T00:13:25;3.22;;;3.03;;
11651;SDS011;5882;48.818;9.114;2023-05-29T00:16:10;3.40;;;3.17;;
11651;SDS011;5882;48.818;9.114;2023-05-29T00:18:56;3.50;;;3.30;;
11651;SDS011;5882;48.818;9.114;2023-05-29T00:21:43;3.40;;;3.20;;
11651;SDS011;5882;48.818;9.114;2023-05-29T00:24:31;3.75;;;3.55;;
11651;SDS011;5882;48.818;9.114;2023-05-29T00:27:16;3.50;;;3.30;;
11651;SDS011;5882;48.818;9.114;2023-05-29T00:30:01;3.83;;;3.63;;
11651;SDS011;5882;48.818;9.114;2023-05-29T00:32:46;3.35;;;3.15;;
11651;SDS011;5882;48.818;9.114;2023-05-29T00:35:31;3.25;;;3.05;;
11651;SDS011;5882;48.818;9.114;2023-05-29T00:38:18;3.10;;;2.90;;
11651;SDS011;5882;48.818;9.114;2023-05-29T00:41:03;3.25;;;3.05;;
11651;SDS011;5882;48.818;9.114;2023-05-29T00:43:48;3.33;;;3.13;;
11651;SDS011;5882;48.818;9.114;2023-05-29T00:46:34;2.83;;;2.70;;
11651;SDS011;5882;48.818;9.114;2023-05-29T00:49:19;3.10;;;2.90;;
11651;SDS011;5882;48.818;9.114;2023-05-29T00:52:05;3.10;;;2.85;;
11651;SDS011;5882;48.818;9.114;2023-05-29T00:54:52;3.10;;;2.90;;
11651;SDS011;5882;48.818;9.114;2023-05-29T00:57:38;2.92;;;2.72;;
11651;SDS011;5882;48.818;9.114;2023-05-29T01:00:23;3.25;;;3.05;;
11651;SDS011;5882;48.818;9.114;2023-05-29T01:03:09;3.55;;;3.35;;
11651;SDS011;5882;48.818;9.114;2023-05-29T01:05:55;3.85;;;3.55;;
11651;SDS011;5882;48.818;9.114;2023-05-29T01:08:41;3.35;;;3.15;;
11651;SDS011;5882;48.818;9.114;2023-05-29T01:11:31;3.30;;;3.10;;
11651;SDS011;5882;48.818;9.114;2023-05-29T01:14:17;3.42;;;3.22;;
11651;SDS011;5882;48.818;9.114;2023-05-29T01:17:06;3.55;;;3.35;;
11651;SDS011;5882;48.818;9.114;2023-05-29T01:20:01;3.50;;;3.30;;
11651;SDS011;5882;48.818;9.114;2023-05-29T01:22:54;3.63;;;3.42;;
11651;SDS011;5882;48.818;9.114;2023-05-29T01:26:00;3.33;;;3.13;;
11651;SDS011;5882;48.818;9.114;2023-05-29T01:28:53;3.20;;;3.00;;
11651;SDS011;5882;48.818;9.114;2023-05-29T01:31:41;2.95;;;2.85;;
11651;SDS011;5882;48.818;9.114;2023-05-29T01:34:26;3.78;;;3.22;;
11651;SDS011;5882;48.818;9.114;2023-05-29T01:37:14;3.17;;;2.97;;
11651;SDS011;5882;48.818;9.114;2023-05-29T01:39:59;3.50;;;3.20;;
11651;SDS011;5882;48.818;9.114;2023-05-29T01:42:45;4.22;;;3.63;;
11651;SDS011;5882;48.818;9.114;2023-05-29T01:45:32;3.70;;;3.50;;
11651;SDS011;5882;48.818;9.114;2023-05-29T01:48:18;3.65;;;3.45;;
11651;SDS011;5882;48.818;9.114;2023-05-29T01:51:03;3.53;;;3.33;;
11651;SDS011;5882;48.818;9.114;2023-05-29T01:53:49;3.35;;;3.15;;
11651;SDS011;5882;48.818;9.114;2023-05-29T01:56:35;3.38;;;3.08;;
11651;SDS011;5882;48.818;9.114;2023-05-29T01:59:20;3.33;;;3.13;;
11651;SDS011;5882;48.818;9.114;2023-05-29T02:02:08;3.50;;;3.30;;
11651;SDS011;5882;48.818;9.114;2023-05-29T02:04:53;3.97;;;3.78;;
11651;SDS011;5882;48.818;9.114;2023-05-29T02:07:39;3.70;;;3.50;;
11651;SDS011;5882;48.818;9.114;2023-05-29T02:10:24;4.20;;;3.90;;
11651;SDS011;5882;48.818;9.114;2023-05-29T02:13:09;3.60;;;3.40;;
11651;SDS011;5882;48.818;9.114;2023-05-29T02:15:54;3.35;;;3.15;;
11651;SDS011;5882;48.818;9.114;2023-05-29T02:18:41;3.60;;;3.40;;
11651;SDS011;5882;48.818;9.114;2023-05-29T02:21:27;3.70;;;3.50;;
11651;SDS011;5882;48.818;9.114;2023-05-29T02:24:12;3.25;;;3.05;;
11651;SDS011;5882;48.818;9.114;2023-05-29T02:26:57;3.13;;;2.92;;
11651;SDS011;5882;48.818;9.114;2023-05-29T02:29:42;3.47;;;3.28;;
11651;SDS011;5882;48.818;9.114;2023-05-29T02:32:27;3.70;;;3.50;;
11651;SDS011;5882;48.818;9.114;2023-05-29T02:35:14;3.55;;;3.35;;
11651;SDS011;5882;48.818;9.114;2023-05-29T02:38:01;3.38;;;3.15;;
11651;SDS011;5882;48.818;9.114;2023-05-29T02:40:46;3.38;;;3.17;;
11651;SDS011;5882;48.818;9.114;2023-05-29T02:43:31;3.17;;;3.00;;
11651;SDS011;5882;48.818;9.114;2023-05-29T02:46:16;2.92;;;2.72;;
11651;SDS011;5882;48.818;9.114;2023-05-29T02:49:01;2.83;;;2.72;;
11651;SDS011;5882;48.818;9.114;2023-05-29T02:51:47;3.63;;;3.35;;
11651;SDS011;5882;48.818;9.114;2023-05-29T02:54:32;3.42;;;3.22;;
11651;SDS011;5882;48.818;9.114;2023-05-29T02:57:17;4.38;;;4.10;;
11651;SDS011;5882;48.818;9.114;2023-05-29T03:00:02;3.88;;;3.67;;
11651;SDS011;5882;48.818;9.114;2023-05-29T03:02:50;4.43;;;4.22;;
11651;SDS011;5882;48.818;9.114;2023-05-29T03:05:35;4.88;;;4.68;;
11651;SDS011;5882;48.818;9.114;2023-05-29T03:08:22;5.13;;;4.72;;
11651;SDS011;5882;48.818;9.114;2023-05-29T03:11:08;4.53;;;4.22;;
11651;SDS011;5882;48.818;9.114;2023-05-29T03:13:54;4.15;;;3.95;;
11651;SDS011;5882;48.818;9.114;2023-05-29T03:16:39;4.00;;;3.70;;
11651;SDS011;5882;48.818;9.114;2023-05-29T03:19:24;3.83;;;3.63;;
11651;SDS011;5882;48.818;9.114;2023-05-29T03:22:09;3.58;;;3.38;;
11651;SDS011;5882;48.818;9.114;2023-05-29T03:24:56;4.07;;;3.83;;
11651;SDS011;5882;48.818;9.114;2023-05-29T03:27:41;4.80;;;4.47;;
11651;SDS011;5882;48.818;9.114;2023-05-29T03:30:26;4.15;;;3.85;;
11651;SDS011;5882;48.818;9.114;2023-05-29T03:33:11;4.15;;;3.85;;
11651;SDS011;5882;48.818;9.114;2023-05-29T03:35:57;3.40;;;3.20;;
11651;SDS011;5882;48.818;9.114;2023-05-29T03:38:42;3.47;;;3.28;;
11651;SDS011;5882;48.818;9.114;2023-05-29T03:41:28;3.40;;;3.20;;
11651;SDS011;5882;48.818;9.114;2023-05-29T03:44:13;3.25;;;3.05;;
11651;SDS011;5882;48.818;9.114;2023-05-29T03:46:58;3.03;;;2.90;;
11651;SDS011;5882;48.818;9.114;2023-05-29T03:49:43;2.80;;;2.70;;
11651;SDS011;5882;48.818;9.114;2023-05-29T03:52:28;3.30;;;3.10;;
11651;SDS011;5882;48.818;9.114;2023-05-29T03:55:13;3.58;;;3.38;;
11651;SDS011;5882;48.818;9.114;2023-05-29T03:58:00;3.33;;;3.13;;
11651;SDS011;5882;48.818;9.114;2023-05-29T04:00:45;3.75;;;3.45;;
11651;SDS011;5882;48.818;9.114;2023-05-29T04:03:30;3.45;;;3.25;;
11651;SDS011;5882;48.818;9.114;2023-05-29T04:06:16;3.33;;;3.13;;
11651;SDS011;5882;48.818;9.114;2023-05-29T04:09:01;3.47;;;3.20;;
11651;SDS011;5882;48.818;9.114;2023-05-29T04:11:46;3.63;;;3.40;;
11651;SDS011;5882;48.818;9.114;2023-05-29T04:14:32;3.30;;;3.10;;
11651;SDS011;5882;48.818;9.114;2023-05-29T04:17:17;3.30;;;3.10;;
11651;SDS011;5882;48.818;9.114;2023-05-29T04:20:03;3.40;;;3.20;;
11651;SDS011;5882;48.818;9.114;2023-05-29T04:22:51;3.17;;;2.97;;
11651;SDS011;5882;48.818;9.114;2023-05-29T04:25:37;3.88;;;3.50;;
11651;SDS011;5882;48.818;9.114;2023-05-29T04:28:21;3.25;;;3.00;;
11651;SDS011;5882;48.818;9.114;2023-05-29T04:31:08;3.25;;;3.05;;
11651;SDS011;5882;48.818;9.114;2023-05-29T04:33:57;3.10;;;2.90;;
11651;SDS011;5882;48.818;9.114;2023-05-29T04:36:44;3.38;;;3.17;;
11651;SDS011;5882;48.818;9.114;2023-05-29T04:39:29;2.88;;;2.78;;
11651;SDS011;5882;48.818;9.114;2023-05-29T04:42:15;2.80;;;2.65;;
11651;SDS011;5882;48.818;9.114;2023-05-29T04:45:00;3.42;;;3.22;;
11651;SDS011;5882;48.818;9.114;2023-05-29T04:47:46;3.30;;;3.10;;
11651;SDS011;5882;48.818;9.114;2023-05-29T04:50:32;3.05;;;2.90;;
11651;SDS011;5882;48.818;9.114;2023-05-29T04:53:17;3.33;;;3.13;;
11651;SDS011;5882;48.818;9.114;2023-05-29T04:56:02;3.20;;;3.00;;
11651;SDS011;5882;48.818;9.114;2023-05-29T04:58:47;3.10;;;2.90;;
11651;SDS011;5882;48.818;9.114;2023-05-29T05:01:32;3.00;;;2.85;;
11651;SDS011;5882;48.818;9.114;2023-05-29T05:04:18;3.40;;;3.20;;
11651;SDS011;5882;48.818;9.114;2023-05-29T05:07:04;3.40;;;3.20;;
11651;SDS011;5882;48.818;9.114;2023-05-29T05:09:50;3.20;;;3.00;;
11651;SDS011;5882;48.818;9.114;2023-05-29T05:12:35;2.88;;;2.78;;
11651;SDS011;5882;48.818;9.114;2023-05-29T05:15:20;3.03;;;2.92;;
11651;SDS011;5882;48.818;9.114;2023-05-29T05:18:05;3.88;;;3.67;;
11651;SDS011;5882;48.818;9.114;2023-05-29T05:20:52;4.10;;;3.90;;
11651;SDS011;5882;48.818;9.114;2023-05-29T05:23:37;5.00;;;4.70;;
11651;SDS011;5882;48.818;9.114;2023-05-29T05:26:22;5.07;;;4.78;;
11651;SDS011;5882;48.818;9.114;2023-05-29T05:29:07;4.60;;;4.40;;
11651;SDS011;5882;48.818;9.114;2023-05-29T05:31:52;4.40;;;4.20;;
11651;SDS011;5882;48.818;9.114;2023-05-29T05:34:37;4.38;;;4.18;;
11651;SDS011;5882;48.818;9.114;2023-05-29T05:37:23;4.30;;;4.10;;
11651;SDS011;5882;48.818;9.114;2023-05-29T05:40:08;4.03;;;3.83;;
11651;SDS011;5882;48.818;9.114;2023-05-29T05:42:54;3.97;;;3.78;;
11651;SDS011;5882;48.818;9.114;2023-05-29T05:45:39;3.40;;;3.22;;
11651;SDS011;5882;48.818;9.114;2023-05-29T05:48:25;3.67;;;3.47;;
11651;SDS011;5882;48.818;9.114;2023-05-29T05:51:10;3.92;;;3.72;;
11651;SDS011;5882;48.818;9.114;2023-05-29T05:53:57;4.35;;;4.15;;
11651;SDS011;5882;48.818;9.114;2023-05-29T05:56:42;4.60;;;4.25;;
11651;SDS011;5882;48.818;9.114;2023-05-29T05:59:27;4.00;;;3.80;;
11651;SDS011;5882;48.818;9.114;2023-05-29T06:02:12;4.55;;;4.35;;
11651;SDS011;5882;48.818;9.114;2023-05-29T06:04:57;4.30;;;4.10;;
11651;SDS011;5882;48.818;9.114;2023-05-29T06:07:42;4.50;;;4.30;;
11651;SDS011;5882;48.818;9.114;2023-05-29T06:10:28;4.28;;;4.00;;
11651;SDS011;5882;48.818;9.114;2023-05-29T06:13:13;3.78;;;3.58;;
11651;SDS011;5882;48.818;9.114;2023-05-29T06:15:58;3.20;;;3.00;;
11651;SDS011;5882;48.818;9.114;2023-05-29T06:18:43;3.28;;;3.17;;
11651;SDS011;5882;48.818;9.114;2023-05-29T06:21:29;3.33;;;3.10;;
11651;SDS011;5882;48.818;9.114;2023-05-29T06:24:15;3.67;;;3.40;;
11651;SDS011;5882;48.818;9.114;2023-05-29T06:27:01;3.40;;;3.20;;
11651;SDS011;5882;48.818;9.114;2023-05-29T06:29:47;3.47;;;3.28;;
11651;SDS011;5882;48.818;9.114;2023-05-29T06:32:32;3.70;;;3.50;;
11651;SDS011;5882;48.818;9.114;2023-05-29T06:35:17;3.40;;;3.20;;
11651;SDS011;5882;48.818;9.114;2023-05-29T06:41:25;3.40;;;3.20;;
11651;SDS011;5882;48.818;9.114;2023-05-29T06:44:12;3.00;;;2.90;;
11651;SDS011;5882;48.818;9.114;2023-05-29T06:46:57;3.55;;;3.35;;
11651;SDS011;5882;48.818;9.114;2023-05-29T06:49:41;3.38;;;3.17;;
11651;SDS011;5882;48.818;9.114;2023-05-29T06:52:26;3.50;;;3.30;;
11651;SDS011;5882;48.818;9.114;2023-05-29T06:55:11;3.47;;;3.30;;
11651;SDS011;5882;48.818;9.114;2023-05-29T06:57:56;3.35;;;3.15;;
11651;SDS011;5882;48.818;9.114;2023-05-29T07:00:43;3.65;;;3.45;;
11651;SDS011;5882;48.818;9.114;2023-05-29T07:03:28;3.00;;;2.90;;
11651;SDS011;5882;48.818;9.114;2023-05-29T07:06:13;3.30;;;3.10;;
11651;SDS011;5882;48.818;9.114;2023-05-29T07:08:59;2.85;;;2.75;;
11651;SDS011;5882;48.818;9.114;2023-05-29T07:11:44;3.30;;;3.00;;
11651;SDS011;5882;48.818;9.114;2023-05-29T07:14:29;2.75;;;2.65;;
11651;SDS011;5882;48.818;9.114;2023-05-29T07:17:16;3.05;;;2.90;;
11651;SDS011;5882;48.818;9.114;2023-05-29T07:20:01;3.00;;;2.80;;
11651;SDS011;5882;48.818;9.114;2023-05-29T07:22:46;3.25;;;3.05;;
11651;SDS011;5882;48.818;9.114;2023-05-29T07:25:32;2.97;;;2.78;;
11651;SDS011;5882;48.818;9.114;2023-05-29T07:28:17;2.90;;;2.67;;
11651;SDS011;5882;48.818;9.114;2023-05-29T07:31:02;3.33;;;3.13;;
11651;SDS011;5882;48.818;9.114;2023-05-29T07:33:49;3.33;;;3.13;;
11651;SDS011;5882;48.818;9.114;2023-05-29T07:36:33;3.30;;;3.10;;
11651;SDS011;5882;48.818;9.114;2023-05-29T07:39:19;3.67;;;3.40;;
11651;SDS011;5882;48.818;9.114;2023-05-29T07:42:04;3.30;;;3.10;;
11651;SDS011;5882;48.818;9.114;2023-05-29T07:44:50;3.45;;;3.33;;
11651;SDS011;5882;48.818;9.114;2023-05-29T07:47:36;3.10;;;2.90;;
11651;SDS011;5882;48.818;9.114;2023-05-29T07:50:22;3.63;;;3.42;;
11651;SDS011;5882;48.818;9.114;2023-05-29T07:53:07;3.30;;;3.10;;
11651;SDS011;5882;48.818;9.114;2023-05-29T07:55:52;3.38;;;3.28;;
11651;SDS011;5882;48.818;9.114;2023-05-29T07:58:37;4.00;;;3.80;;
11651;SDS011;5882;48.818;9.114;2023-05-29T08:01:23;3.80;;;3.60;;
11651;SDS011;5882;48.818;9.114;2023-05-29T08:04:09;3.80;;;3.60;;
11651;SDS011;5882;48.818;9.114;2023-05-29T08:06:56;2.90;;;2.80;;
11651;SDS011;5882;48.818;9.114;2023-05-29T08:09:41;3.00;;;2.80;;
11651;SDS011;5882;48.818;9.114;2023-05-29T08:12:26;3.22;;;3.03;;
11651;SDS011;5882;48.818;9.114;2023-05-29T08:15:11;3.42;;;3.22;;
11651;SDS011;5882;48.818;9.114;2023-05-29T08:17:56;3.15;;;3.05;;
11651;SDS011;5882;48.818;9.114;2023-05-29T08:20:42;3.00;;;2.80;;
11651;SDS011;5882;48.818;9.114;2023-05-29T08:23:29;3.28;;;3.08;;
11651;SDS011;5882;48.818;9.114;2023-05-29T08:26:15;3.58;;;3.28;;
11651;SDS011;5882;48.818;9.114;2023-05-29T08:29:00;3.08;;;2.88;;
11651;SDS011;5882;48.818;9.114;2023-05-29T08:31:45;3.13;;;3.03;;
11651;SDS011;5882;48.818;9.114;2023-05-29T08:34:30;3.15;;;3.05;;
11651;SDS011;5882;48.818;9.114;2023-05-29T08:37:15;3.25;;;3.05;;
11651;SDS011;5882;48.818;9.114;2023-05-29T08:40:03;3.13;;;2.92;;
11651;SDS011;5882;48.818;9.114;2023-05-29T08:42:55;3.25;;;3.13;;
11651;SDS011;5882;48.818;9.114;2023-05-29T08:45:42;3.50;;;3.30;;
11651;SDS011;5882;48.818;9.114;2023-05-29T08:48:27;3.28;;;3.08;;
11651;SDS011;5882;48.818;9.114;2023-05-29T08:51:13;3.13;;;2.92;;
11651;SDS011;5882;48.818;9.114;2023-05-29T08:53:58;2.72;;;2.63;;
11651;SDS011;5882;48.818;9.114;2023-05-29T08:56:45;3.05;;;2.90;;
11651;SDS011;5882;48.818;9.114;2023-05-29T08:59:32;2.97;;;2.88;;
11651;SDS011;5882;48.818;9.114;2023-05-29T09:02:17;3.30;;;3.10;;
11651;SDS011;5882;48.818;9.114;2023-05-29T09:05:03;3.20;;;3.10;;
11651;SDS011;5882;48.818;9.114;2023-05-29T09:07:50;3.28;;;3.08;;
11651;SDS011;5882;48.818;9.114;2023-05-29T09:10:35;3.63;;;3.42;;
11651;SDS011;5882;48.818;9.114;2023-05-29T09:13:21;3.50;;;3.20;;
11651;SDS011;5882;48.818;9.114;2023-05-29T09:16:07;3.53;;;3.33;;
11651;SDS011;5882;48.818;9.114;2023-05-29T09:18:52;4.50;;;4.30;;
11651;SDS011;5882;48.818;9.114;2023-05-29T09:21:37;4.50;;;4.30;;
11651;SDS011;5882;48.818;9.114;2023-05-29T09:24:22;5.35;;;5.03;;
11651;SDS011;5882;48.818;9.114;2023-05-29T09:27:09;4.78;;;4.57;;
11651;SDS011;5882;48.818;9.114;2023-05-29T09:29:56;4.70;;;4.50;;
11651;SDS011;5882;48.818;9.114;2023-05-29T09:32:42;4.97;;;4.68;;
11651;SDS011;5882;48.818;9.114;2023-05-29T09:35:31;4.57;;;4.38;;
11651;SDS011;5882;48.818;9.114;2023-05-29T09:38:17;3.70;;;3.50;;
11651;SDS011;5882;48.818;9.114;2023-05-29T09:41:03;3.05;;;2.90;;
11651;SDS011;5882;48.818;9.114;2023-05-29T09:43:49;3.00;;;2.90;;
11651;SDS011;5882;48.818;9.114;2023-05-29T09:46:35;2.53;;;2.42;;
11651;SDS011;5882;48.818;9.114;2023-05-29T09:49:20;3.08;;;2.97;;
11651;SDS011;5882;48.818;9.114;2023-05-29T09:52:10;3.10;;;3.00;;
11651;SDS011;5882;48.818;9.114;2023-05-29T09:54:59;3.10;;;2.90;;
11651;SDS011;5882;48.818;9.114;2023-05-29T09:57:44;3.25;;;3.05;;
11651;SDS011;5882;48.818;9.114;2023-05-29T10:00:31;2.92;;;2.83;;
11651;SDS011;5882;48.818;9.114;2023-05-29T10:03:20;3.38;;;3.17;;
11651;SDS011;5882;48.818;9.114;2023-05-29T10:06:06;2.83;;;2.72;;
11651;SDS011;5882;48.818;9.114;2023-05-29T10:08:53;2.75;;;2.65;;
11651;SDS011;5882;48.818;9.114;2023-05-29T10:11:40;2.78;;;2.67;;
11651;SDS011;5882;48.818;9.114;2023-05-29T10:14:26;3.60;;;3.40;;
11651;SDS011;5882;48.818;9.114;2023-05-29T10:17:15;3.20;;;3.03;;
11651;SDS011;5882;48.818;9.114;2023-05-29T10:20:05;3.20;;;3.00;;
11651;SDS011;5882;48.818;9.114;2023-05-29T10:22:51;3.10;;;2.90;;
11651;SDS011;5882;48.818;9.114;2023-05-29T10:25:40;2.75;;;2.65;;
11651;SDS011;5882;48.818;9.114;2023-05-29T10:28:26;2.80;;;2.70;;
11651;SDS011;5882;48.818;9.114;2023-05-29T10:31:13;3.08;;;2.97;;
11651;SDS011;5882;48.818;9.114;2023-05-29T10:34:02;3.00;;;2.90;;
11651;SDS011;5882;48.818;9.114;2023-05-29T10:36:56;3.20;;;3.03;;
11651;SDS011;5882;48.818;9.114;2023-05-29T10:39:47;3.70;;;3.50;;
11651;SDS011;5882;48.818;9.114;2023-05-29T10:42:40;3.47;;;3.28;;
11651;SDS011;5882;48.818;9.114;2023-05-29T10:45:49;3.47;;;3.28;;
11651;SDS011;5882;48.818;9.114;2023-05-29T10:48:42;3.65;;;3.45;;
11651;SDS011;5882;48.818;9.114;2023-05-29T10:51:27;5.15;;;4.95;;
11651;SDS011;5882;48.818;9.114;2023-05-29T10:54:14;3.25;;;3.15;;
11651;SDS011;5882;48.818;9.114;2023-05-29T10:57:01;3.83;;;3.63;;
11651;SDS011;5882;48.818;9.114;2023-05-29T10:59:47;4.07;;;3.88;;
11651;SDS011;5882;48.818;9.114;2023-05-29T11:02:31;5.10;;;4.90;;
11651;SDS011;5882;48.818;9.114;2023-05-29T11:05:20;5.60;;;5.32;;
11651;SDS011;5882;48.818;9.114;2023-05-29T11:08:06;4.00;;;3.80;;
11651;SDS011;5882;48.818;9.114;2023-05-29T11:10:59;4.07;;;3.88;;
11651;SDS011;5882;48.818;9.114;2023-05-29T11:13:51;4.03;;;3.83;;
11651;SDS011;5882;48.818;9.114;2023-05-29T11:16:36;4.30;;;4.10;;
11651;SDS011;5882;48.818;9.114;2023-05-29T11:19:21;3.13;;;3.03;;
11651;SDS011;5882;48.818;9.114;2023-05-29T11:22:08;3.05;;;2.95;;
11651;SDS011;5882;48.818;9.114;2023-05-29T11:24:55;3.50;;;3.35;;
11651;SDS011;5882;48.818;9.114;2023-05-29T11:27:43;4.40;;;4.20;;
11651;SDS011;5882;48.818;9.114;2023-05-29T11:30:28;4.88;;;4.68;;
11651;SDS011;5882;48.818;9.114;2023-05-29T11:33:23;4.53;;;4.32;;
11651;SDS011;5882;48.818;9.114;2023-05-29T11:36:09;4.38;;;4.18;;
11651;SDS011;5882;48.818;9.114;2023-05-29T11:38:55;3.40;;;3.20;;
11651;SDS011;5882;48.818;9.114;2023-05-29T11:41:40;3.03;;;2.92;;
11651;SDS011;5882;48.818;9.114;2023-05-29T11:44:27;3.42;;;3.28;;
11651;SDS011;5882;48.818;9.114;2023-05-29T11:47:12;3.10;;;3.00;;
11651;SDS011;5882;48.818;9.114;2023-05-29T11:49:58;3.38;;;3.17;;
11651;SDS011;5882;48.818;9.114;2023-05-29T11:52:45;3.67;;;3.58;;
11651;SDS011;5882;48.818;9.114;2023-05-29T11:55:30;4.00;;;3.80;;
11651;SDS011;5882;48.818;9.114;2023-05-29T11:58:15;3.28;;;3.08;;
11651;SDS011;5882;48.818;9.114;2023-05-29T12:01:01;3.47;;;3.28;;
11651;SDS011;5882;48.818;9.114;2023-05-29T12:03:47;3.20;;;3.10;;
11651;SDS011;5882;48.818;9.114;2023-05-29T12:06:32;3.28;;;3.17;;
11651;SDS011;5882;48.818;9.114;2023-05-29T12:09:24;3.47;;;3.30;;
11651;SDS011;5882;48.818;9.114;2023-05-29T12:12:10;3.60;;;3.40;;
11651;SDS011;5882;48.818;9.114;2023-05-29T12:14:55;4.30;;;4.10;;
11651;SDS011;5882;48.818;9.114;2023-05-29T12:17:43;3.78;;;3.58;;
11651;SDS011;5882;48.818;9.114;2023-05-29T12:20:29;5.20;;;4.97;;
11651;SDS011;5882;48.818;9.114;2023-05-29T12:23:14;4.78;;;4.57;;
11651;SDS011;5882;48.818;9.114;2023-05-29T12:26:00;3.92;;;3.72;;
11651;SDS011;5882;48.818;9.114;2023-05-29T12:28:45;5.13;;;4.93;;
11651;SDS011;5882;48.818;9.114;2023-05-29T12:31:31;7.85;;;7.55;;
11651;SDS011;5882;48.818;9.114;2023-05-29T12:34:18;7.78;;;7.45;;
11651;SDS011;5882;48.818;9.114;2023-05-29T12:37:05;8.35;;;7.95;;
11651;SDS011;5882;48.818;9.114;2023-05-29T12:42:54;3.28;;;3.17;;
11651;SDS011;5882;48.818;9.114;2023-05-29T12:45:39;3.47;;;3.30;;
11651;SDS011;5882;48.818;9.114;2023-05-29T12:48:27;3.55;;;3.45;;
11651;SDS011;5882;48.818;9.114;2023-05-29T12:51:14;4.00;;;3.80;;
11651;SDS011;5882;48.818;9.114;2023-05-29T12:53:59;3.85;;;3.65;;
11651;SDS011;5882;48.818;9.114;2023-05-29T12:56:44;4.22;;;4.03;;
11651;SDS011;5882;48.818;9.114;2023-05-29T12:59:29;4.65;;;4.45;;
11651;SDS011;5882;48.818;9.114;2023-05-29T13:02:15;3.75;;;3.55;;
11651;SDS011;5882;48.818;9.114;2023-05-29T13:05:00;3.55;;;3.25;;
11651;SDS011;5882;48.818;9.114;2023-05-29T13:07:47;3.40;;;3.20;;
11651;SDS011;5882;48.818;9.114;2023-05-29T13:10:32;3.30;;;3.10;;
11651;SDS011;5882;48.818;9.114;2023-05-29T13:13:18;3.97;;;3.78;;
11651;SDS011;5882;48.818;9.114;2023-05-29T13:16:03;4.50;;;4.30;;
11651;SDS011;5882;48.818;9.114;2023-05-29T13:18:49;4.82;;;4.63;;
11651;SDS011;5882;48.818;9.114;2023-05-29T13:21:34;4.40;;;4.20;;
11651;SDS011;5882;48.818;9.114;2023-05-29T13:24:20;3.72;;;3.53;;
11651;SDS011;5882;48.818;9.114;2023-05-29T13:27:05;3.90;;;3.70;;
11651;SDS011;5882;48.818;9.114;2023-05-29T13:29:50;3.80;;;3.60;;
11651;SDS011;5882;48.818;9.114;2023-05-29T13:32:35;3.97;;;3.78;;
11651;SDS011;5882;48.818;9.114;2023-05-29T13:35:20;5.03;;;4.82;;
11651;SDS011;5882;48.818;9.114;2023-05-29T13:38:06;6.65;;;6.35;;
11651;SDS011;5882;48.818;9.114;2023-05-29T13:40:52;6.40;;;6.00;;
11651;SDS011;5882;48.818;9.114;2023-05-29T13:43:38;5.18;;;4.97;;
11651;SDS011;5882;48.818;9.114;2023-05-29T13:46:23;6.65;;;6.35;;
11651;SDS011;5882;48.818;9.114;2023-05-29T13:49:08;8.43;;;8.13;;
11651;SDS011;5882;48.818;9.114;2023-05-29T13:51:54;11.02;;;10.63;;
11651;SDS011;5882;48.818;9.114;2023-05-29T13:54:39;11.18;;;10.77;;
11651;SDS011;5882;48.818;9.114;2023-05-29T13:57:26;10.90;;;10.40;;
11651;SDS011;5882;48.818;9.114;2023-05-29T14:00:12;6.55;;;6.25;;
11651;SDS011;5882;48.818;9.114;2023-05-29T14:02:57;4.40;;;4.20;;
11651;SDS011;5882;48.818;9.114;2023-05-29T14:05:42;3.80;;;3.60;;
11651;SDS011;5882;48.818;9.114;2023-05-29T14:08:27;3.42;;;3.33;;
11651;SDS011;5882;48.818;9.114;2023-05-29T14:11:12;3.60;;;3.50;;
11651;SDS011;5882;48.818;9.114;2023-05-29T14:13:58;4.28;;;4.07;;
11651;SDS011;5882;48.818;9.114;2023-05-29T14:16:44;4.82;;;4.63;;
11651;SDS011;5882;48.818;9.114;2023-05-29T14:19:29;5.45;;;5.25;;
11651;SDS011;5882;48.818;9.114;2023-05-29T14:22:14;6.32;;;6.03;;
11651;SDS011;5882;48.818;9.114;2023-05-29T14:24:59;5.60;;;5.40;;
11651;SDS011;5882;48.818;9.114;2023-05-29T14:27:44;4.50;;;4.30;;
11651;SDS011;5882;48.818;9.114;2023-05-29T14:30:31;4.10;;;3.90;;
11651;SDS011;5882;48.818;9.114;2023-05-29T14:33:16;3.40;;;3.30;;
11651;SDS011;5882;48.818;9.114;2023-05-29T14:36:02;21.30;;;20.50;;
11651;SDS011;5882;48.818;9.114;2023-05-29T14:38:47;4.68;;;4.47;;
11651;SDS011;5882;48.818;9.114;2023-05-29T14:41:33;11.90;;;11.45;;
11651;SDS011;5882;48.818;9.114;2023-05-29T14:44:18;10.90;;;10.50;;
11651;SDS011;5882;48.818;9.114;2023-05-29T14:47:05;8.10;;;7.80;;
11651;SDS011;5882;48.818;9.114;2023-05-29T14:49:50;7.18;;;6.88;;
11651;SDS011;5882;48.818;9.114;2023-05-29T14:52:35;7.20;;;6.90;;
11651;SDS011;5882;48.818;9.114;2023-05-29T14:55:20;5.65;;;5.45;;
11651;SDS011;5882;48.818;9.114;2023-05-29T14:58:05;5.85;;;5.55;;
11651;SDS011;5882;48.818;9.114;2023-05-29T15:00:51;6.50;;;6.20;;
11651;SDS011;5882;48.818;9.114;2023-05-29T15:03:37;5.75;;;5.55;;
11651;SDS011;5882;48.818;9.114;2023-05-29T15:06:22;5.93;;;5.70;;
11651;SDS011;5882;48.818;9.114;2023-05-29T15:09:08;6.07;;;5.88;;
11651;SDS011;5882;48.818;9.114;2023-05-29T15:11:54;10.65;;;10.25;;
11651;SDS011;5882;48.818;9.114;2023-05-29T15:14:39;9.63;;;9.23;;
11651;SDS011;5882;48.818;9.114;2023-05-29T15:17:24;6.53;;;6.32;;
11651;SDS011;5882;48.818;9.114;2023-05-29T15:20:11;10.77;;;10.38;;
11651;SDS011;5882;48.818;9.114;2023-05-29T15:22:56;7.32;;;7.03;;
11651;SDS011;5882;48.818;9.114;2023-05-29T15:25:41;6.38;;;6.07;;
11651;SDS011;5882;48.818;9.114;2023-05-29T15:28:26;7.05;;;6.75;;
11651;SDS011;5882;48.818;9.114;2023-05-29T15:31:11;6.50;;;6.20;;
11651;SDS011;5882;48.818;9.114;2023-05-29T15:33:56;6.85;;;6.55;;
11651;SDS011;5882;48.818;9.114;2023-05-29T15:36:42;7.25;;;6.95;;
11651;SDS011;5882;48.818;9.114;2023-05-29T15:39:27;6.20;;;6.00;;
11651;SDS011;5882;48.818;9.114;2023-05-29T15:42:12;7.25;;;6.95;;
11651;SDS011;5882;48.818;9.114;2023-05-29T15:44:58;7.07;;;6.78;;
11651;SDS011;5882;48.818;9.114;2023-05-29T15:47:43;6.50;;;6.20;;
11651;SDS011;5882;48.818;9.114;2023-05-29T15:50:28;6.22;;;5.95;;
11651;SDS011;5882;48.818;9.114;2023-05-29T15:53:15;4.97;;;4.78;;
11651;SDS011;5882;48.818;9.114;2023-05-29T15:56:00;5.15;;;4.95;;
11651;SDS011;5882;48.818;9.114;2023-05-29T15:58:45;6.72;;;6.43;;
11651;SDS011;5882;48.818;9.114;2023-05-29T16:01:30;7.63;;;7.32;;
11651;SDS011;5882;48.818;9.114;2023-05-29T16:04:15;9.20;;;8.90;;
11651;SDS011;5882;48.818;9.114;2023-05-29T16:07:00;7.70;;;7.40;;
11651;SDS011;5882;48.818;9.114;2023-05-29T16:09:47;4.90;;;4.70;;
11651;SDS011;5882;48.818;9.114;2023-05-29T16:12:33;4.53;;;4.32;;
11651;SDS011;5882;48.818;9.114;2023-05-29T16:15:21;5.10;;;4.90;;
11651;SDS011;5882;48.818;9.114;2023-05-29T16:18:06;6.40;;;6.10;;
11651;SDS011;5882;48.818;9.114;2023-05-29T16:20:51;5.10;;;4.90;;
11651;SDS011;5882;48.818;9.114;2023-05-29T16:23:37;4.28;;;4.07;;
11651;SDS011;5882;48.818;9.114;2023-05-29T16:26:24;4.65;;;4.45;;
11651;SDS011;5882;48.818;9.114;2023-05-29T16:29:10;4.63;;;4.43;;
11651;SDS011;5882;48.818;9.114;2023-05-29T16:31:56;4.40;;;4.20;;
11651;SDS011;5882;48.818;9.114;2023-05-29T16:34:41;6.03;;;5.78;;
11651;SDS011;5882;48.818;9.114;2023-05-29T16:37:26;7.82;;;7.53;;
11651;SDS011;5882;48.818;9.114;2023-05-29T16:40:11;7.40;;;7.10;;
11651;SDS011;5882;48.818;9.114;2023-05-29T16:42:58;5.80;;;5.60;;
11651;SDS011;5882;48.818;9.114;2023-05-29T16:45:43;5.22;;;5.03;;
11651;SDS011;5882;48.818;9.114;2023-05-29T16:48:29;5.57;;;5.30;;
11651;SDS011;5882;48.818;9.114;2023-05-29T16:51:14;4.85;;;4.65;;
11651;SDS011;5882;48.818;9.114;2023-05-29T16:53:58;4.78;;;4.57;;
11651;SDS011;5882;48.818;9.114;2023-05-29T16:56:43;5.18;;;4.97;;
11651;SDS011;5882;48.818;9.114;2023-05-29T16:59:30;5.15;;;4.95;;
11651;SDS011;5882;48.818;9.114;2023-05-29T17:02:15;5.75;;;5.55;;